sensor_id;sensor_type;location;lat;lon;timestamp;temperature;humidity
57390;DHT22;43217;52.694;6.214;2023-04-15T00:00:37;8.10;99.90
57390;DHT22;43217;52.694;6.214;2023-04-15T00:03:02;8.10;99.90
57390;DHT22;43217;52.694;6.214;2023-04-15T00:05:30;8.10;99.90
57390;DHT22;43217;52.694;6.214;2023-04-15T00:07:56;8.10;99.90
57390;DHT22;43217;52.694;6.214;2023-04-15T00:10:24;8.10;99.90
57390;DHT22;43217;52.694;6.214;2023-04-15T00:12:50;8.00;99.90
57390;DHT22;43217;52.694;6.214;2023-04-15T00:15:15;8.00;99.90
57390;DHT22;43217;52.694;6.214;2023-04-15T00:17:41;8.00;99.90
57390;DHT22;43217;52.694;6.214;2023-04-15T00:20:07;7.90;99.90
57390;DHT22;43217;52.694;6.214;2023-04-15T00:22:33;7.90;99.90
57390;DHT22;43217;52.694;6.214;2023-04-15T00:24:59;7.90;99.90
57390;DHT22;43217;52.694;6.214;2023-04-15T00:27:24;7.80;99.90
57390;DHT22;43217;52.694;6.214;2023-04-15T00:29:50;7.80;99.90
57390;DHT22;43217;52.694;6.214;2023-04-15T00:32:16;7.80;99.90
57390;DHT22;43217;52.694;6.214;2023-04-15T00:34:41;7.80;99.90
57390;DHT22;43217;52.694;6.214;2023-04-15T00:37:08;7.70;99.90
57390;DHT22;43217;52.694;6.214;2023-04-15T00:39:35;7.70;99.90
57390;DHT22;43217;52.694;6.214;2023-04-15T00:42:01;7.70;99.90
57390;DHT22;43217;52.694;6.214;2023-04-15T00:44:28;7.70;99.90
57390;DHT22;43217;52.694;6.214;2023-04-15T00:46:58;7.70;99.90
57390;DHT22;43217;52.694;6.214;2023-04-15T00:49:24;7.60;99.90
57390;DHT22;43217;52.694;6.214;2023-04-15T00:51:53;7.60;99.90
57390;DHT22;43217;52.694;6.214;2023-04-15T00:54:19;7.60;99.90
57390;DHT22;43217;52.694;6.214;2023-04-15T00:56:45;7.60;99.90
57390;DHT22;43217;52.694;6.214;2023-04-15T00:59:11;7.50;99.90
57390;DHT22;43217;52.694;6.214;2023-04-15T01:01:37;7.50;99.90
57390;DHT22;43217;52.694;6.214;2023-04-15T01:04:03;7.50;99.90
57390;DHT22;43217;52.694;6.214;2023-04-15T01:06:30;7.40;99.90
57390;DHT22;43217;52.694;6.214;2023-04-15T01:08:56;7.40;99.90
57390;DHT22;43217;52.694;6.214;2023-04-15T01:11:23;7.40;99.90
57390;DHT22;43217;52.694;6.214;2023-04-15T01:13:50;7.40;99.90
57390;DHT22;43217;52.694;6.214;2023-04-15T01:16:17;7.30;99.90
57390;DHT22;43217;52.694;6.214;2023-04-15T01:18:43;7.30;99.90
57390;DHT22;43217;52.694;6.214;2023-04-15T01:21:10;7.30;99.90
57390;DHT22;43217;52.694;6.214;2023-04-15T01:23:36;7.30;99.90
57390;DHT22;43217;52.694;6.214;2023-04-15T01:26:03;7.20;99.90
57390;DHT22;43217;52.694;6.214;2023-04-15T01:28:30;7.20;99.90
57390;DHT22;43217;52.694;6.214;2023-04-15T01:31:09;7.20;99.90
57390;DHT22;43217;52.694;6.214;2023-04-15T01:33:39;7.20;99.90
57390;DHT22;43217;52.694;6.214;2023-04-15T01:36:09;7.20;99.90
57390;DHT22;43217;52.694;6.214;2023-04-15T01:38:36;7.10;99.90
57390;DHT22;43217;52.694;6.214;2023-04-15T01:41:02;7.10;99.90
57390;DHT22;43217;52.694;6.214;2023-04-15T01:43:33;7.10;99.90
57390;DHT22;43217;52.694;6.214;2023-04-15T01:45:59;7.00;99.90
57390;DHT22;43217;52.694;6.214;2023-04-15T01:48:24;7.10;99.90
57390;DHT22;43217;52.694;6.214;2023-04-15T01:50:53;7.00;99.90
57390;DHT22;43217;52.694;6.214;2023-04-15T01:53:18;7.00;99.90
57390;DHT22;43217;52.694;6.214;2023-04-15T01:55:45;7.00;99.90
57390;DHT22;43217;52.694;6.214;2023-04-15T01:58:11;6.90;99.90
57390;DHT22;43217;52.694;6.214;2023-04-15T02:00:36;6.90;99.90
57390;DHT22;43217;52.694;6.214;2023-04-15T02:03:02;6.90;99.90
57390;DHT22;43217;52.694;6.214;2023-04-15T02:05:28;6.80;99.90
57390;DHT22;43217;52.694;6.214;2023-04-15T02:07:54;6.80;99.90
57390;DHT22;43217;52.694;6.214;2023-04-15T02:10:20;6.80;99.90
57390;DHT22;43217;52.694;6.214;2023-04-15T02:12:45;6.80;99.90
57390;DHT22;43217;52.694;6.214;2023-04-15T02:15:11;6.80;99.90
57390;DHT22;43217;52.694;6.214;2023-04-15T02:17:37;6.70;99.90
57390;DHT22;43217;52.694;6.214;2023-04-15T02:20:03;6.80;99.90
57390;DHT22;43217;52.694;6.214;2023-04-15T02:22:33;6.80;99.90
57390;DHT22;43217;52.694;6.214;2023-04-15T02:25:00;6.70;99.90
57390;DHT22;43217;52.694;6.214;2023-04-15T02:27:25;6.70;99.90
57390;DHT22;43217;52.694;6.214;2023-04-15T02:29:54;6.70;99.90
57390;DHT22;43217;52.694;6.214;2023-04-15T02:32:19;6.60;99.90
57390;DHT22;43217;52.694;6.214;2023-04-15T02:34:47;6.60;99.90
57390;DHT22;43217;52.694;6.214;2023-04-15T02:37:13;6.60;99.90
57390;DHT22;43217;52.694;6.214;2023-04-15T02:39:39;6.50;99.90
57390;DHT22;43217;52.694;6.214;2023-04-15T02:42:04;6.50;99.90
57390;DHT22;43217;52.694;6.214;2023-04-15T02:44:31;6.50;99.90
57390;DHT22;43217;52.694;6.214;2023-04-15T02:46:57;6.40;99.90
57390;DHT22;43217;52.694;6.214;2023-04-15T02:49:24;6.40;99.90
57390;DHT22;43217;52.694;6.214;2023-04-15T02:51:50;6.40;99.90
57390;DHT22;43217;52.694;6.214;2023-04-15T02:54:19;6.40;99.90
57390;DHT22;43217;52.694;6.214;2023-04-15T02:56:45;6.40;99.90
57390;DHT22;43217;52.694;6.214;2023-04-15T02:59:12;6.40;99.90
57390;DHT22;43217;52.694;6.214;2023-04-15T03:01:37;6.40;99.90
57390;DHT22;43217;52.694;6.214;2023-04-15T03:04:03;6.30;99.90
57390;DHT22;43217;52.694;6.214;2023-04-15T03:06:29;6.30;99.90
57390;DHT22;43217;52.694;6.214;2023-04-15T03:08:55;6.30;99.90
57390;DHT22;43217;52.694;6.214;2023-04-15T03:11:21;6.30;99.90
57390;DHT22;43217;52.694;6.214;2023-04-15T03:13:47;6.20;99.90
57390;DHT22;43217;52.694;6.214;2023-04-15T03:16:13;6.20;99.90
57390;DHT22;43217;52.694;6.214;2023-04-15T03:18:39;6.20;99.90
57390;DHT22;43217;52.694;6.214;2023-04-15T03:21:04;6.20;99.90
57390;DHT22;43217;52.694;6.214;2023-04-15T03:23:31;6.20;99.90
57390;DHT22;43217;52.694;6.214;2023-04-15T03:25:56;6.20;99.90
57390;DHT22;43217;52.694;6.214;2023-04-15T03:28:23;6.20;99.90
57390;DHT22;43217;52.694;6.214;2023-04-15T03:30:49;6.10;99.90
57390;DHT22;43217;52.694;6.214;2023-04-15T03:33:15;6.10;99.90
57390;DHT22;43217;52.694;6.214;2023-04-15T03:35:40;6.10;99.90
57390;DHT22;43217;52.694;6.214;2023-04-15T03:38:06;6.10;99.90
57390;DHT22;43217;52.694;6.214;2023-04-15T03:40:32;6.00;99.90
57390;DHT22;43217;52.694;6.214;2023-04-15T03:42:57;6.00;99.90
57390;DHT22;43217;52.694;6.214;2023-04-15T03:45:23;6.00;99.90
57390;DHT22;43217;52.694;6.214;2023-04-15T03:47:48;6.00;99.90
57390;DHT22;43217;52.694;6.214;2023-04-15T03:50:14;6.00;99.90
57390;DHT22;43217;52.694;6.214;2023-04-15T03:52:40;5.90;99.90
57390;DHT22;43217;52.694;6.214;2023-04-15T03:55:07;5.90;99.90
57390;DHT22;43217;52.694;6.214;2023-04-15T03:57:33;5.90;99.90
57390;DHT22;43217;52.694;6.214;2023-04-15T04:00:04;5.90;99.90
57390;DHT22;43217;52.694;6.214;2023-04-15T04:02:29;5.90;99.90
57390;DHT22;43217;52.694;6.214;2023-04-15T04:04:55;5.80;99.90
57390;DHT22;43217;52.694;6.214;2023-04-15T04:07:22;5.80;99.90
57390;DHT22;43217;52.694;6.214;2023-04-15T04:09:48;5.80;99.90
57390;DHT22;43217;52.694;6.214;2023-04-15T04:12:13;5.80;99.90
57390;DHT22;43217;52.694;6.214;2023-04-15T04:14:39;5.80;99.90
57390;DHT22;43217;52.694;6.214;2023-04-15T04:17:05;5.70;99.90
57390;DHT22;43217;52.694;6.214;2023-04-15T04:19:31;5.70;99.90
57390;DHT22;43217;52.694;6.214;2023-04-15T04:21:56;5.60;99.90
57390;DHT22;43217;52.694;6.214;2023-04-15T04:24:22;5.60;99.90
57390;DHT22;43217;52.694;6.214;2023-04-15T04:26:47;5.60;99.90
57390;DHT22;43217;52.694;6.214;2023-04-15T04:29:13;5.60;99.90
57390;DHT22;43217;52.694;6.214;2023-04-15T04:31:39;5.50;99.90
57390;DHT22;43217;52.694;6.214;2023-04-15T04:34:05;5.50;99.90
57390;DHT22;43217;52.694;6.214;2023-04-15T04:36:30;5.50;99.90
57390;DHT22;43217;52.694;6.214;2023-04-15T04:38:56;5.50;99.90
57390;DHT22;43217;52.694;6.214;2023-04-15T04:41:22;5.50;99.90
57390;DHT22;43217;52.694;6.214;2023-04-15T04:43:48;5.40;99.90
57390;DHT22;43217;52.694;6.214;2023-04-15T04:46:13;5.40;99.90
57390;DHT22;43217;52.694;6.214;2023-04-15T04:48:39;5.40;99.90
57390;DHT22;43217;52.694;6.214;2023-04-15T04:51:05;5.40;99.90
57390;DHT22;43217;52.694;6.214;2023-04-15T04:53:38;5.40;99.90
57390;DHT22;43217;52.694;6.214;2023-04-15T04:56:04;5.40;99.90
57390;DHT22;43217;52.694;6.214;2023-04-15T04:58:33;5.30;99.90
57390;DHT22;43217;52.694;6.214;2023-04-15T05:00:58;5.30;99.90
57390;DHT22;43217;52.694;6.214;2023-04-15T05:03:29;5.30;99.90
57390;DHT22;43217;52.694;6.214;2023-04-15T05:05:55;5.30;99.90
57390;DHT22;43217;52.694;6.214;2023-04-15T05:08:23;5.30;99.90
57390;DHT22;43217;52.694;6.214;2023-04-15T05:10:49;5.30;99.90
57390;DHT22;43217;52.694;6.214;2023-04-15T05:13:15;5.40;99.90
57390;DHT22;43217;52.694;6.214;2023-04-15T05:15:40;5.50;99.90
57390;DHT22;43217;52.694;6.214;2023-04-15T05:18:12;5.50;99.90
57390;DHT22;43217;52.694;6.214;2023-04-15T05:20:41;5.50;99.90
57390;DHT22;43217;52.694;6.214;2023-04-15T05:23:06;5.50;99.90
57390;DHT22;43217;52.694;6.214;2023-04-15T05:25:32;5.50;99.90
57390;DHT22;43217;52.694;6.214;2023-04-15T05:27:58;5.60;99.90
57390;DHT22;43217;52.694;6.214;2023-04-15T05:30:23;5.70;99.90
57390;DHT22;43217;52.694;6.214;2023-04-15T05:32:49;5.70;99.90
57390;DHT22;43217;52.694;6.214;2023-04-15T05:35:15;5.80;99.90
57390;DHT22;43217;52.694;6.214;2023-04-15T05:37:40;5.90;99.90
57390;DHT22;43217;52.694;6.214;2023-04-15T05:40:06;6.00;99.90
57390;DHT22;43217;52.694;6.214;2023-04-15T05:42:37;6.20;99.90
57390;DHT22;43217;52.694;6.214;2023-04-15T05:45:03;6.40;99.90
57390;DHT22;43217;52.694;6.214;2023-04-15T05:47:36;6.60;99.90
57390;DHT22;43217;52.694;6.214;2023-04-15T05:50:02;6.90;99.90
57390;DHT22;43217;52.694;6.214;2023-04-15T05:52:29;7.20;99.90
57390;DHT22;43217;52.694;6.214;2023-04-15T05:54:55;7.60;99.90
57390;DHT22;43217;52.694;6.214;2023-04-15T05:57:23;7.90;99.90
57390;DHT22;43217;52.694;6.214;2023-04-15T05:59:49;8.20;99.90
57390;DHT22;43217;52.694;6.214;2023-04-15T06:02:23;8.40;99.90
57390;DHT22;43217;52.694;6.214;2023-04-15T06:04:48;8.30;99.90
57390;DHT22;43217;52.694;6.214;2023-04-15T06:07:14;8.10;99.90
57390;DHT22;43217;52.694;6.214;2023-04-15T06:09:41;7.90;99.90
57390;DHT22;43217;52.694;6.214;2023-04-15T06:12:06;7.80;99.90
57390;DHT22;43217;52.694;6.214;2023-04-15T06:14:37;7.70;99.90
57390;DHT22;43217;52.694;6.214;2023-04-15T06:17:09;7.70;99.90
57390;DHT22;43217;52.694;6.214;2023-04-15T06:19:35;7.60;99.90
57390;DHT22;43217;52.694;6.214;2023-04-15T06:22:01;7.50;99.90
57390;DHT22;43217;52.694;6.214;2023-04-15T06:24:27;7.40;99.90
57390;DHT22;43217;52.694;6.214;2023-04-15T06:26:53;7.40;99.90
57390;DHT22;43217;52.694;6.214;2023-04-15T06:29:27;7.30;99.90
57390;DHT22;43217;52.694;6.214;2023-04-15T06:31:53;7.30;99.90
57390;DHT22;43217;52.694;6.214;2023-04-15T06:34:19;7.20;99.90
57390;DHT22;43217;52.694;6.214;2023-04-15T06:36:44;7.20;99.90
57390;DHT22;43217;52.694;6.214;2023-04-15T06:39:10;7.30;99.90
57390;DHT22;43217;52.694;6.214;2023-04-15T06:41:36;7.20;99.90
57390;DHT22;43217;52.694;6.214;2023-04-15T06:44:01;7.30;99.90
57390;DHT22;43217;52.694;6.214;2023-04-15T06:46:27;7.40;99.90
57390;DHT22;43217;52.694;6.214;2023-04-15T06:48:52;7.50;99.90
57390;DHT22;43217;52.694;6.214;2023-04-15T06:51:18;7.50;99.90
57390;DHT22;43217;52.694;6.214;2023-04-15T06:53:45;7.70;99.90
57390;DHT22;43217;52.694;6.214;2023-04-15T06:56:11;7.90;99.90
57390;DHT22;43217;52.694;6.214;2023-04-15T06:58:37;8.10;99.90
57390;DHT22;43217;52.694;6.214;2023-04-15T07:01:02;8.30;99.90
57390;DHT22;43217;52.694;6.214;2023-04-15T07:03:28;8.30;99.90
57390;DHT22;43217;52.694;6.214;2023-04-15T07:05:54;8.40;99.90
57390;DHT22;43217;52.694;6.214;2023-04-15T07:08:20;8.40;99.90
57390;DHT22;43217;52.694;6.214;2023-04-15T07:10:46;8.40;99.90
57390;DHT22;43217;52.694;6.214;2023-04-15T07:13:12;8.50;99.90
57390;DHT22;43217;52.694;6.214;2023-04-15T07:15:38;8.60;99.90
57390;DHT22;43217;52.694;6.214;2023-04-15T07:18:04;8.80;99.90
57390;DHT22;43217;52.694;6.214;2023-04-15T07:20:30;8.90;99.90
57390;DHT22;43217;52.694;6.214;2023-04-15T07:22:56;9.10;99.90
57390;DHT22;43217;52.694;6.214;2023-04-15T07:25:22;9.40;99.90
57390;DHT22;43217;52.694;6.214;2023-04-15T07:27:48;9.50;99.90
57390;DHT22;43217;52.694;6.214;2023-04-15T07:30:14;9.80;99.90
57390;DHT22;43217;52.694;6.214;2023-04-15T07:32:41;10.20;99.90
57390;DHT22;43217;52.694;6.214;2023-04-15T07:35:07;10.60;99.90
57390;DHT22;43217;52.694;6.214;2023-04-15T07:37:34;11.00;99.90
57390;DHT22;43217;52.694;6.214;2023-04-15T07:40:00;11.20;99.90
57390;DHT22;43217;52.694;6.214;2023-04-15T07:42:25;11.30;99.90
57390;DHT22;43217;52.694;6.214;2023-04-15T07:44:51;11.40;99.90
57390;DHT22;43217;52.694;6.214;2023-04-15T07:47:17;11.60;99.90
57390;DHT22;43217;52.694;6.214;2023-04-15T07:49:43;11.70;99.90
57390;DHT22;43217;52.694;6.214;2023-04-15T07:52:08;11.60;99.90
57390;DHT22;43217;52.694;6.214;2023-04-15T07:54:34;11.60;99.90
57390;DHT22;43217;52.694;6.214;2023-04-15T07:57:00;11.60;99.90
57390;DHT22;43217;52.694;6.214;2023-04-15T07:59:25;11.50;99.90
57390;DHT22;43217;52.694;6.214;2023-04-15T08:01:54;11.60;99.90
57390;DHT22;43217;52.694;6.214;2023-04-15T08:04:20;11.50;99.90
57390;DHT22;43217;52.694;6.214;2023-04-15T08:06:45;11.40;99.90
57390;DHT22;43217;52.694;6.214;2023-04-15T08:09:12;11.30;99.90
57390;DHT22;43217;52.694;6.214;2023-04-15T08:11:39;11.30;99.90
57390;DHT22;43217;52.694;6.214;2023-04-15T08:14:05;11.30;99.90
57390;DHT22;43217;52.694;6.214;2023-04-15T08:16:31;11.40;99.90
57390;DHT22;43217;52.694;6.214;2023-04-15T08:18:57;11.40;99.90
57390;DHT22;43217;52.694;6.214;2023-04-15T08:21:23;11.50;99.90
57390;DHT22;43217;52.694;6.214;2023-04-15T08:23:51;11.60;99.90
57390;DHT22;43217;52.694;6.214;2023-04-15T08:26:18;11.60;99.90
57390;DHT22;43217;52.694;6.214;2023-04-15T08:28:44;11.60;99.90
57390;DHT22;43217;52.694;6.214;2023-04-15T08:31:16;11.60;99.90
57390;DHT22;43217;52.694;6.214;2023-04-15T08:33:42;11.70;99.90
57390;DHT22;43217;52.694;6.214;2023-04-15T08:36:08;11.70;99.90
57390;DHT22;43217;52.694;6.214;2023-04-15T08:38:34;11.70;99.90
57390;DHT22;43217;52.694;6.214;2023-04-15T08:41:03;11.70;99.90
57390;DHT22;43217;52.694;6.214;2023-04-15T08:43:52;11.60;99.90
57390;DHT22;43217;52.694;6.214;2023-04-15T08:46:18;11.50;99.90
57390;DHT22;43217;52.694;6.214;2023-04-15T08:48:46;11.30;99.90
57390;DHT22;43217;52.694;6.214;2023-04-15T08:51:12;11.30;99.90
57390;DHT22;43217;52.694;6.214;2023-04-15T08:53:42;11.30;99.90
57390;DHT22;43217;52.694;6.214;2023-04-15T08:56:08;11.30;99.90
57390;DHT22;43217;52.694;6.214;2023-04-15T08:58:36;11.20;99.90
57390;DHT22;43217;52.694;6.214;2023-04-15T09:01:02;11.30;99.90
57390;DHT22;43217;52.694;6.214;2023-04-15T09:03:29;11.30;99.90
57390;DHT22;43217;52.694;6.214;2023-04-15T09:05:56;11.40;99.90
57390;DHT22;43217;52.694;6.214;2023-04-15T09:08:22;11.30;99.90
57390;DHT22;43217;52.694;6.214;2023-04-15T09:10:48;11.40;99.90
57390;DHT22;43217;52.694;6.214;2023-04-15T09:13:14;11.70;99.90
57390;DHT22;43217;52.694;6.214;2023-04-15T09:15:40;11.80;99.90
57390;DHT22;43217;52.694;6.214;2023-04-15T09:18:06;11.80;99.90
57390;DHT22;43217;52.694;6.214;2023-04-15T09:20:39;11.90;99.90
57390;DHT22;43217;52.694;6.214;2023-04-15T09:23:14;11.80;99.90
57390;DHT22;43217;52.694;6.214;2023-04-15T09:25:41;11.80;99.90
57390;DHT22;43217;52.694;6.214;2023-04-15T09:28:07;11.70;99.90
57390;DHT22;43217;52.694;6.214;2023-04-15T09:30:33;11.70;99.90
57390;DHT22;43217;52.694;6.214;2023-04-15T09:33:02;11.60;99.90
57390;DHT22;43217;52.694;6.214;2023-04-15T09:35:29;11.70;99.90
57390;DHT22;43217;52.694;6.214;2023-04-15T09:38:06;11.80;99.90
57390;DHT22;43217;52.694;6.214;2023-04-15T09:40:38;11.80;99.90
57390;DHT22;43217;52.694;6.214;2023-04-15T09:43:05;11.70;99.90
57390;DHT22;43217;52.694;6.214;2023-04-15T09:45:32;11.60;99.90
57390;DHT22;43217;52.694;6.214;2023-04-15T09:47:59;11.60;99.90
57390;DHT22;43217;52.694;6.214;2023-04-15T09:50:40;11.40;99.90
57390;DHT22;43217;52.694;6.214;2023-04-15T09:53:14;11.30;99.90
57390;DHT22;43217;52.694;6.214;2023-04-15T09:55:44;11.20;99.90
57390;DHT22;43217;52.694;6.214;2023-04-15T09:58:20;11.20;99.90
57390;DHT22;43217;52.694;6.214;2023-04-15T10:00:47;11.20;99.90
57390;DHT22;43217;52.694;6.214;2023-04-15T10:03:18;11.30;99.90
57390;DHT22;43217;52.694;6.214;2023-04-15T10:05:47;11.20;99.90
57390;DHT22;43217;52.694;6.214;2023-04-15T10:08:16;11.30;99.90
57390;DHT22;43217;52.694;6.214;2023-04-15T10:10:43;11.10;99.90
57390;DHT22;43217;52.694;6.214;2023-04-15T10:13:19;11.10;99.90
57390;DHT22;43217;52.694;6.214;2023-04-15T10:15:57;11.00;99.90
57390;DHT22;43217;52.694;6.214;2023-04-15T10:18:25;11.00;99.90
57390;DHT22;43217;52.694;6.214;2023-04-15T10:20:52;11.10;99.90
57390;DHT22;43217;52.694;6.214;2023-04-15T10:23:19;11.00;99.90
57390;DHT22;43217;52.694;6.214;2023-04-15T10:25:45;11.00;99.90
57390;DHT22;43217;52.694;6.214;2023-04-15T10:28:11;11.00;99.90
57390;DHT22;43217;52.694;6.214;2023-04-15T10:30:37;11.00;99.90
57390;DHT22;43217;52.694;6.214;2023-04-15T10:33:04;11.00;99.90
57390;DHT22;43217;52.694;6.214;2023-04-15T10:35:31;11.10;99.90
57390;DHT22;43217;52.694;6.214;2023-04-15T10:37:57;11.10;99.90
57390;DHT22;43217;52.694;6.214;2023-04-15T10:40:28;11.20;99.90
57390;DHT22;43217;52.694;6.214;2023-04-15T10:42:56;11.50;99.90
57390;DHT22;43217;52.694;6.214;2023-04-15T10:45:25;11.60;99.90
57390;DHT22;43217;52.694;6.214;2023-04-15T10:47:55;11.70;99.90
57390;DHT22;43217;52.694;6.214;2023-04-15T10:50:24;11.80;99.90
57390;DHT22;43217;52.694;6.214;2023-04-15T10:52:51;12.00;99.90
57390;DHT22;43217;52.694;6.214;2023-04-15T10:55:25;12.10;99.90
57390;DHT22;43217;52.694;6.214;2023-04-15T10:57:57;12.20;99.90
57390;DHT22;43217;52.694;6.214;2023-04-15T11:00:26;12.20;99.90
57390;DHT22;43217;52.694;6.214;2023-04-15T11:08:08;12.10;99.90
57390;DHT22;43217;52.694;6.214;2023-04-15T11:13:01;12.20;99.90
57390;DHT22;43217;52.694;6.214;2023-04-15T11:15:35;12.20;99.90
57390;DHT22;43217;52.694;6.214;2023-04-15T11:20:49;12.20;99.90
57390;DHT22;43217;52.694;6.214;2023-04-15T11:23:17;12.20;99.90
57390;DHT22;43217;52.694;6.214;2023-04-15T11:25:43;12.10;99.90
57390;DHT22;43217;52.694;6.214;2023-04-15T11:28:09;12.10;99.90
57390;DHT22;43217;52.694;6.214;2023-04-15T11:30:36;12.10;99.90
57390;DHT22;43217;52.694;6.214;2023-04-15T11:33:04;12.00;99.90
57390;DHT22;43217;52.694;6.214;2023-04-15T11:35:29;12.00;99.90
57390;DHT22;43217;52.694;6.214;2023-04-15T11:37:55;12.00;99.90
57390;DHT22;43217;52.694;6.214;2023-04-15T11:40:25;12.00;99.90
57390;DHT22;43217;52.694;6.214;2023-04-15T11:45:36;11.90;99.90
57390;DHT22;43217;52.694;6.214;2023-04-15T11:48:10;12.00;99.90
57390;DHT22;43217;52.694;6.214;2023-04-15T11:50:37;11.90;99.90
57390;DHT22;43217;52.694;6.214;2023-04-15T11:53:06;11.90;99.90
57390;DHT22;43217;52.694;6.214;2023-04-15T11:55:41;11.90;99.90
57390;DHT22;43217;52.694;6.214;2023-04-15T11:58:17;11.80;99.90
57390;DHT22;43217;52.694;6.214;2023-04-15T12:00:51;11.70;99.90
57390;DHT22;43217;52.694;6.214;2023-04-15T12:03:26;11.70;99.90
57390;DHT22;43217;52.694;6.214;2023-04-15T12:06:15;11.70;99.90
57390;DHT22;43217;52.694;6.214;2023-04-15T12:14:01;11.70;99.90
57390;DHT22;43217;52.694;6.214;2023-04-15T12:16:27;11.60;99.90
57390;DHT22;43217;52.694;6.214;2023-04-15T12:18:55;11.50;99.90
57390;DHT22;43217;52.694;6.214;2023-04-15T12:21:22;11.40;99.90
57390;DHT22;43217;52.694;6.214;2023-04-15T12:23:52;11.40;99.90
57390;DHT22;43217;52.694;6.214;2023-04-15T12:26:49;11.40;99.90
57390;DHT22;43217;52.694;6.214;2023-04-15T12:29:16;11.50;99.90
57390;DHT22;43217;52.694;6.214;2023-04-15T12:31:53;11.40;99.90
57390;DHT22;43217;52.694;6.214;2023-04-15T12:34:33;11.50;99.90
57390;DHT22;43217;52.694;6.214;2023-04-15T12:37:03;11.50;99.90
57390;DHT22;43217;52.694;6.214;2023-04-15T12:39:30;11.50;99.90
57390;DHT22;43217;52.694;6.214;2023-04-15T12:41:57;11.50;99.90
57390;DHT22;43217;52.694;6.214;2023-04-15T12:44:26;11.50;99.90
57390;DHT22;43217;52.694;6.214;2023-04-15T12:46:52;11.50;99.90
57390;DHT22;43217;52.694;6.214;2023-04-15T12:49:20;11.50;99.90
57390;DHT22;43217;52.694;6.214;2023-04-15T12:51:50;11.40;99.90
57390;DHT22;43217;52.694;6.214;2023-04-15T12:54:17;11.40;99.90
57390;DHT22;43217;52.694;6.214;2023-04-15T12:56:44;11.30;99.90
57390;DHT22;43217;52.694;6.214;2023-04-15T12:59:12;11.30;99.90
57390;DHT22;43217;52.694;6.214;2023-04-15T13:01:38;11.20;99.90
57390;DHT22;43217;52.694;6.214;2023-04-15T13:04:04;11.10;99.90
57390;DHT22;43217;52.694;6.214;2023-04-15T13:06:30;11.10;99.90
57390;DHT22;43217;52.694;6.214;2023-04-15T13:09:01;10.90;99.90
57390;DHT22;43217;52.694;6.214;2023-04-15T13:11:28;10.90;99.90
57390;DHT22;43217;52.694;6.214;2023-04-15T13:14:02;10.80;99.90
57390;DHT22;43217;52.694;6.214;2023-04-15T13:16:28;10.80;99.90
57390;DHT22;43217;52.694;6.214;2023-04-15T13:18:53;10.80;99.90
57390;DHT22;43217;52.694;6.214;2023-04-15T13:21:19;10.90;99.90
57390;DHT22;43217;52.694;6.214;2023-04-15T13:23:45;11.00;99.90
57390;DHT22;43217;52.694;6.214;2023-04-15T13:26:11;11.00;99.90
57390;DHT22;43217;52.694;6.214;2023-04-15T13:28:37;11.00;99.90
57390;DHT22;43217;52.694;6.214;2023-04-15T13:31:05;11.00;99.90
57390;DHT22;43217;52.694;6.214;2023-04-15T13:33:30;11.00;99.90
57390;DHT22;43217;52.694;6.214;2023-04-15T13:35:56;11.00;99.90
57390;DHT22;43217;52.694;6.214;2023-04-15T13:38:23;11.10;99.90
57390;DHT22;43217;52.694;6.214;2023-04-15T13:40:48;11.10;99.90
57390;DHT22;43217;52.694;6.214;2023-04-15T13:43:14;11.10;99.90
57390;DHT22;43217;52.694;6.214;2023-04-15T13:45:40;11.10;99.90
57390;DHT22;43217;52.694;6.214;2023-04-15T13:48:05;11.20;99.90
57390;DHT22;43217;52.694;6.214;2023-04-15T13:50:31;11.20;99.90
57390;DHT22;43217;52.694;6.214;2023-04-15T13:52:57;11.20;99.90
57390;DHT22;43217;52.694;6.214;2023-04-15T13:55:22;11.20;99.90
57390;DHT22;43217;52.694;6.214;2023-04-15T13:57:49;11.10;99.90
57390;DHT22;43217;52.694;6.214;2023-04-15T14:00:15;11.00;99.90
57390;DHT22;43217;52.694;6.214;2023-04-15T14:02:41;11.00;99.90
57390;DHT22;43217;52.694;6.214;2023-04-15T14:05:08;11.00;99.90
57390;DHT22;43217;52.694;6.214;2023-04-15T14:07:34;10.90;99.90
57390;DHT22;43217;52.694;6.214;2023-04-15T14:09:59;10.90;99.90
57390;DHT22;43217;52.694;6.214;2023-04-15T14:12:25;10.90;99.90
57390;DHT22;43217;52.694;6.214;2023-04-15T14:14:51;10.80;99.90
57390;DHT22;43217;52.694;6.214;2023-04-15T14:17:16;10.80;99.90
57390;DHT22;43217;52.694;6.214;2023-04-15T14:19:42;10.80;99.90
57390;DHT22;43217;52.694;6.214;2023-04-15T14:22:07;10.80;99.90
57390;DHT22;43217;52.694;6.214;2023-04-15T14:24:33;10.70;99.90
57390;DHT22;43217;52.694;6.214;2023-04-15T14:26:59;10.80;99.90
57390;DHT22;43217;52.694;6.214;2023-04-15T14:29:24;10.90;99.90
57390;DHT22;43217;52.694;6.214;2023-04-15T14:31:50;10.90;99.90
57390;DHT22;43217;52.694;6.214;2023-04-15T14:34:16;11.00;99.90
57390;DHT22;43217;52.694;6.214;2023-04-15T14:36:42;11.00;99.90
57390;DHT22;43217;52.694;6.214;2023-04-15T14:39:09;11.00;99.90
57390;DHT22;43217;52.694;6.214;2023-04-15T14:41:35;11.00;99.90
57390;DHT22;43217;52.694;6.214;2023-04-15T14:44:01;10.90;99.90
57390;DHT22;43217;52.694;6.214;2023-04-15T14:46:26;10.80;99.90
57390;DHT22;43217;52.694;6.214;2023-04-15T14:48:52;10.70;99.90
57390;DHT22;43217;52.694;6.214;2023-04-15T14:51:18;10.60;99.90
57390;DHT22;43217;52.694;6.214;2023-04-15T14:53:44;10.60;99.90
57390;DHT22;43217;52.694;6.214;2023-04-15T14:56:10;10.50;99.90
57390;DHT22;43217;52.694;6.214;2023-04-15T14:58:36;10.50;99.90
57390;DHT22;43217;52.694;6.214;2023-04-15T15:01:02;10.50;99.90
57390;DHT22;43217;52.694;6.214;2023-04-15T15:03:29;10.50;99.90
57390;DHT22;43217;52.694;6.214;2023-04-15T15:05:55;10.50;99.90
57390;DHT22;43217;52.694;6.214;2023-04-15T15:08:22;10.40;99.90
57390;DHT22;43217;52.694;6.214;2023-04-15T15:10:48;10.40;99.90
57390;DHT22;43217;52.694;6.214;2023-04-15T15:13:14;10.40;99.90
57390;DHT22;43217;52.694;6.214;2023-04-15T15:15:40;10.30;99.90
57390;DHT22;43217;52.694;6.214;2023-04-15T15:18:05;10.30;99.90
57390;DHT22;43217;52.694;6.214;2023-04-15T15:20:31;10.20;99.90
57390;DHT22;43217;52.694;6.214;2023-04-15T15:22:59;10.20;99.90
57390;DHT22;43217;52.694;6.214;2023-04-15T15:25:24;10.10;99.90
57390;DHT22;43217;52.694;6.214;2023-04-15T15:27:50;10.10;99.90
57390;DHT22;43217;52.694;6.214;2023-04-15T15:30:16;10.10;99.90
57390;DHT22;43217;52.694;6.214;2023-04-15T15:32:42;10.10;99.90
57390;DHT22;43217;52.694;6.214;2023-04-15T15:35:08;10.10;99.90
57390;DHT22;43217;52.694;6.214;2023-04-15T15:37:35;10.10;99.90
57390;DHT22;43217;52.694;6.214;2023-04-15T15:40:04;10.10;99.90
57390;DHT22;43217;52.694;6.214;2023-04-15T15:42:30;10.00;99.90
57390;DHT22;43217;52.694;6.214;2023-04-15T15:44:56;10.00;99.90
57390;DHT22;43217;52.694;6.214;2023-04-15T15:47:22;10.00;99.90
57390;DHT22;43217;52.694;6.214;2023-04-15T15:49:48;9.90;99.90
57390;DHT22;43217;52.694;6.214;2023-04-15T15:52:13;9.90;99.90
57390;DHT22;43217;52.694;6.214;2023-04-15T15:54:40;9.80;99.90